Time;durP1;ratioP1;P1;durP2;ratioP2;P2;SDS_P1;SDS_P2;PMS_P1;PMS_P2;Temp;Humidity;BMP_temperature;BMP_pressure;BME280_temperature;BME280_humidity;BME280_pressure;Samples;Min_cycle;Max_cycle;Signal;HPM_P1;HPM_P2
2022/01/16 00:06:23;;;;;;;46.83;21.02;;;;;;;;;;5124234;27;20054;-61
2022/01/16 00:08:48;;;;;;;51.85;21.77;;;;;;;;;;5126355;27;20042;-60
2022/01/16 00:11:14;;;;;;;51.63;21.92;;;;;;;;;;5123044;27;20088;-59
2022/01/16 00:13:41;;;;;;;51.45;21.83;;;;;;;;;;5131960;27;20035;-59
2022/01/16 00:16:08;;;;;;;55.75;24.30;;;;;;;;;;5130528;27;20054;-61
2022/01/16 00:18:48;;;;;;;57.72;22.48;;;;;;;;;;5131518;27;20031;-59
2022/01/16 00:21:14;;;;;;;62.83;23.52;;;;;;;;;;5131544;27;20043;-59
2022/01/16 00:23:40;;;;;;;63.58;23.33;;;;;;;;;;5129975;27;20039;-60
2022/01/16 00:26:06;;;;;;;61.97;24.13;;;;;;;;;;5130789;27;20043;-60
2022/01/16 00:28:33;;;;;;;59.95;22.88;;;;;;;;;;5129339;27;20039;-60
2022/01/16 00:30:59;;;;;;;71.72;26.15;;;;;;;;;;5130856;27;20397;-61
2022/01/16 00:33:25;;;;;;;61.30;22.65;;;;;;;;;;5129502;27;20122;-59
2022/01/16 00:35:51;;;;;;;59.15;23.00;;;;;;;;;;5128528;27;20482;-60
2022/01/16 00:38:17;;;;;;;67.65;25.65;;;;;;;;;;5117655;27;20119;-60
2022/01/16 00:40:43;;;;;;;63.17;23.35;;;;;;;;;;5131254;27;20073;-61
2022/01/16 00:43:09;;;;;;;62.92;24.15;;;;;;;;;;5116237;27;20054;-60
2022/01/16 00:45:36;;;;;;;68.88;25.52;;;;;;;;;;5129076;27;20489;-60
2022/01/16 00:48:03;;;;;;;67.40;26.20;;;;;;;;;;5129458;27;20066;-61
2022/01/16 00:50:29;;;;;;;70.93;26.73;;;;;;;;;;5128048;27;20053;-59
2022/01/16 00:52:55;;;;;;;72.30;26.73;;;;;;;;;;5129655;27;20126;-61
2022/01/16 00:55:21;;;;;;;71.00;25.92;;;;;;;;;;5130093;27;20066;-60
2022/01/16 00:57:47;;;;;;;64.85;25.58;;;;;;;;;;5125546;27;20084;-61
2022/01/16 01:00:13;;;;;;;75.97;26.95;;;;;;;;;;5127246;27;20039;-61
2022/01/16 01:02:39;;;;;;;80.75;26.73;;;;;;;;;;5129539;28;20031;-59
2022/01/16 01:05:07;;;;;;;73.68;27.30;;;;;;;;;;5128416;27;20088;-60
2022/01/16 01:07:33;;;;;;;74.85;27.45;;;;;;;;;;5129500;27;20046;-61
2022/01/16 01:09:59;;;;;;;77.00;28.38;;;;;;;;;;5130041;27;20044;-61
2022/01/16 01:12:30;;;;;;;79.68;29.10;;;;;;;;;;5129208;27;20063;-61
2022/01/16 01:15:10;;;;;;;85.25;30.13;;;;;;;;;;5129563;27;20050;-59
2022/01/16 01:17:44;;;;;;;90.18;28.95;;;;;;;;;;5128013;27;20051;-62
2022/01/16 01:20:11;;;;;;;77.20;28.80;;;;;;;;;;5128426;28;20046;-59
2022/01/16 01:22:37;;;;;;;82.00;28.10;;;;;;;;;;5130415;27;20421;-61
2022/01/16 01:25:03;;;;;;;85.43;29.90;;;;;;;;;;5128542;28;20632;-60
2022/01/16 01:27:31;;;;;;;87.30;30.40;;;;;;;;;;5128750;28;20031;-61
2022/01/16 01:30:09;;;;;;;73.30;27.65;;;;;;;;;;5128272;27;20046;-60
2022/01/16 01:32:36;;;;;;;84.88;28.67;;;;;;;;;;5130771;27;20040;-58
2022/01/16 01:35:03;;;;;;;85.15;27.85;;;;;;;;;;5124147;27;20046;-60
2022/01/16 01:37:29;;;;;;;90.55;30.50;;;;;;;;;;5123430;28;20036;-59
2022/01/16 01:39:55;;;;;;;85.80;28.98;;;;;;;;;;5112332;28;20047;-59
2022/01/16 01:42:22;;;;;;;76.13;26.23;;;;;;;;;;5128633;28;20375;-60
2022/01/16 01:53:02;;;;;;;78.05;26.35;;;;;;;;;;5128329;28;20043;-58
2022/01/16 01:55:28;;;;;;;90.07;27.08;;;;;;;;;;5128735;28;20440;-59
2022/01/16 01:57:54;;;;;;;78.40;25.85;;;;;;;;;;5128368;28;20039;-61
2022/01/16 02:00:21;;;;;;;91.25;27.42;;;;;;;;;;5129496;28;20374;-61
2022/01/16 02:05:28;;;;;;;87.57;27.23;;;;;;;;;;5129418;28;20520;-60
2022/01/16 02:07:54;;;;;;;90.88;28.55;;;;;;;;;;5128012;28;20053;-59
2022/01/16 02:10:21;;;;;;;92.15;26.80;;;;;;;;;;5112169;28;20391;-60
2022/01/16 02:12:50;;;;;;;77.82;25.65;;;;;;;;;;5129422;28;20439;-62
2022/01/16 02:15:36;;;;;;;95.57;28.63;;;;;;;;;;5128448;27;20040;-60
2022/01/16 02:31:58;;;;;;;80.15;27.48;;;;;;;;;;5133101;27;20546;-60
2022/01/16 02:37:00;;;;;;;86.20;28.70;;;;;;;;;;5131338;27;20078;-61
2022/01/16 02:39:26;;;;;;;80.78;26.38;;;;;;;;;;5131464;27;20031;-60
2022/01/16 02:41:54;;;;;;;84.25;28.58;;;;;;;;;;5133151;27;20058;-60
2022/01/16 02:45:04;;;;;;;108.05;27.25;;;;;;;;;;5131639;27;20477;-60
2022/01/16 02:47:14;;;;;;;84.68;28.23;;;;;;;;;;5123682;27;20047;-59
2022/01/16 02:49:41;;;;;;;94.22;26.48;;;;;;;;;;5116329;27;20382;-61
2022/01/16 02:52:09;;;;;;;89.07;26.20;;;;;;;;;;5131844;27;20098;-59
2022/01/16 02:54:36;;;;;;;82.90;26.63;;;;;;;;;;5131341;27;20050;-61
2022/01/16 02:57:02;;;;;;;79.45;26.10;;;;;;;;;;5131397;27;20071;-59
2022/01/16 02:59:29;;;;;;;79.80;26.60;;;;;;;;;;5127037;27;20120;-60
2022/01/16 03:01:55;;;;;;;89.05;27.73;;;;;;;;;;5131403;27;20117;-59
2022/01/16 03:04:21;;;;;;;76.32;27.23;;;;;;;;;;5132092;27;20031;-60
2022/01/16 03:06:47;;;;;;;79.43;27.75;;;;;;;;;;5133245;27;20043;-61
2022/01/16 03:09:13;;;;;;;92.13;28.02;;;;;;;;;;5115369;27;20078;-61
2022/01/16 03:11:45;;;;;;;72.53;25.52;;;;;;;;;;5122810;27;20035;-61
2022/01/16 03:14:12;;;;;;;79.03;27.20;;;;;;;;;;5132482;27;20050;-61
2022/01/16 03:16:42;;;;;;;72.57;25.95;;;;;;;;;;5133074;27;20397;-61
2022/01/16 03:22:02;;;;;;;92.70;27.17;;;;;;;;;;5128724;27;20113;-61
2022/01/16 03:24:35;;;;;;;87.75;27.60;;;;;;;;;;5133228;27;20087;-61
2022/01/16 03:27:02;;;;;;;93.60;26.27;;;;;;;;;;5129530;27;20039;-61
2022/01/16 03:29:28;;;;;;;79.63;25.48;;;;;;;;;;5132584;27;20039;-61
2022/01/16 03:31:55;;;;;;;92.93;27.42;;;;;;;;;;5129246;27;20498;-61
2022/01/16 03:34:21;;;;;;;82.85;25.60;;;;;;;;;;5129681;27;20385;-59
2022/01/16 03:36:47;;;;;;;92.43;27.30;;;;;;;;;;5130256;27;20038;-60
2022/01/16 03:39:13;;;;;;;85.00;26.67;;;;;;;;;;5131464;27;20039;-61
2022/01/16 03:41:40;;;;;;;75.63;24.63;;;;;;;;;;5131039;27;20034;-59
2022/01/16 03:44:06;;;;;;;85.70;25.85;;;;;;;;;;5122023;27;22417;-60
2022/01/16 03:46:37;;;;;;;83.97;26.33;;;;;;;;;;5130501;27;20051;-60
2022/01/16 03:49:04;;;;;;;73.32;25.42;;;;;;;;;;5130728;27;20043;-61
2022/01/16 03:51:30;;;;;;;90.38;27.50;;;;;;;;;;5130749;27;20126;-60
2022/01/16 03:53:56;;;;;;;77.25;24.77;;;;;;;;;;5131328;27;20031;-60
2022/01/16 03:56:23;;;;;;;77.43;26.40;;;;;;;;;;5127897;27;20489;-59
2022/01/16 03:58:49;;;;;;;82.97;27.92;;;;;;;;;;5131306;27;20039;-60
2022/01/16 04:01:15;;;;;;;85.72;27.15;;;;;;;;;;5130821;27;20490;-60
2022/01/16 04:03:41;;;;;;;77.68;25.90;;;;;;;;;;5130894;27;20059;-60
2022/01/16 04:06:07;;;;;;;79.30;26.75;;;;;;;;;;5128870;27;20046;-61
2022/01/16 04:08:33;;;;;;;83.20;28.30;;;;;;;;;;5132027;27;20114;-59
2022/01/16 04:11:00;;;;;;;88.07;28.10;;;;;;;;;;5130868;27;20047;-59
2022/01/16 04:13:26;;;;;;;95.20;28.50;;;;;;;;;;5131860;27;20065;-61
2022/01/16 04:15:52;;;;;;;85.22;27.98;;;;;;;;;;5119910;27;20164;-61
2022/01/16 04:18:18;;;;;;;86.57;28.08;;;;;;;;;;5130800;27;20043;-60
2022/01/16 04:20:44;;;;;;;84.78;27.35;;;;;;;;;;5129790;27;20401;-61
2022/01/16 04:23:10;;;;;;;88.68;28.08;;;;;;;;;;5127972;27;20046;-60
2022/01/16 04:25:37;;;;;;;73.75;24.90;;;;;;;;;;5113344;27;20035;-61
2022/01/16 04:28:04;;;;;;;77.00;25.90;;;;;;;;;;5130162;27;20084;-60
2022/01/16 04:30:30;;;;;;;89.55;27.13;;;;;;;;;;5131338;27;20031;-61
2022/01/16 04:32:56;;;;;;;82.93;27.45;;;;;;;;;;5130218;27;20031;-60
2022/01/16 04:35:22;;;;;;;89.60;28.20;;;;;;;;;;5128825;27;20470;-60
2022/01/16 04:37:48;;;;;;;102.43;30.13;;;;;;;;;;5130351;27;20043;-60
2022/01/16 04:40:15;;;;;;;91.95;29.23;;;;;;;;;;5128104;27;20083;-60
2022/01/16 04:45:26;;;;;;;83.32;28.35;;;;;;;;;;5129798;27;20088;-60
2022/01/16 04:47:53;;;;;;;79.97;28.08;;;;;;;;;;5097723;27;20323;-60
2022/01/16 04:50:21;;;;;;;80.03;27.83;;;;;;;;;;5130298;27;20413;-60
2022/01/16 04:52:48;;;;;;;80.70;26.58;;;;;;;;;;5126725;27;20046;-61
2022/01/16 04:55:14;;;;;;;82.05;29.23;;;;;;;;;;5128946;27;20035;-61
2022/01/16 04:57:41;;;;;;;88.50;29.58;;;;;;;;;;5129556;27;20037;-59
2022/01/16 05:00:12;;;;;;;87.22;27.83;;;;;;;;;;5129413;27;20055;-60
2022/01/16 05:02:38;;;;;;;86.70;29.75;;;;;;;;;;5129088;27;20130;-62
2022/01/16 05:05:05;;;;;;;74.30;25.50;;;;;;;;;;5127403;27;20076;-60
2022/01/16 05:07:31;;;;;;;81.18;27.42;;;;;;;;;;5129904;27;20047;-61
2022/01/16 05:09:57;;;;;;;80.70;27.17;;;;;;;;;;5128214;27;20043;-60
2022/01/16 05:12:32;;;;;;;77.10;26.70;;;;;;;;;;5129677;27;20441;-61
2022/01/16 05:17:43;;;;;;;77.95;27.15;;;;;;;;;;5116384;28;20123;-58
2022/01/16 05:20:09;;;;;;;81.10;26.55;;;;;;;;;;5128789;28;20524;-59
2022/01/16 05:22:36;;;;;;;72.47;27.25;;;;;;;;;;5128670;28;20035;-59
2022/01/16 05:25:03;;;;;;;66.97;24.88;;;;;;;;;;5130615;28;20046;-60
2022/01/16 05:27:29;;;;;;;73.90;26.90;;;;;;;;;;5127993;28;20056;-60
2022/01/16 05:29:55;;;;;;;71.10;25.13;;;;;;;;;;5129974;28;20497;-60
2022/01/16 05:32:21;;;;;;;79.70;27.30;;;;;;;;;;5117296;28;20050;-61
2022/01/16 05:34:47;;;;;;;81.30;28.55;;;;;;;;;;5116039;28;20039;-60
2022/01/16 05:37:13;;;;;;;77.07;26.60;;;;;;;;;;5115727;28;20420;-59
2022/01/16 05:39:40;;;;;;;82.43;28.50;;;;;;;;;;5126279;28;20114;-63
2022/01/16 05:42:07;;;;;;;82.28;29.50;;;;;;;;;;5119946;28;20031;-59
2022/01/16 05:44:33;;;;;;;76.40;28.35;;;;;;;;;;5128396;28;20122;-59
2022/01/16 05:47:04;;;;;;;84.22;27.27;;;;;;;;;;5127285;28;20047;-60
2022/01/16 05:49:30;;;;;;;79.53;26.65;;;;;;;;;;5129934;27;20039;-60
2022/01/16 05:51:56;;;;;;;83.35;27.75;;;;;;;;;;5127656;28;20040;-59
2022/01/16 05:54:22;;;;;;;85.68;28.75;;;;;;;;;;5127446;27;20045;-60
2022/01/16 05:56:48;;;;;;;86.28;28.58;;;;;;;;;;5121295;28;20486;-60
2022/01/16 05:59:14;;;;;;;88.10;28.23;;;;;;;;;;5131280;27;20134;-62
2022/01/16 06:01:40;;;;;;;80.97;27.17;;;;;;;;;;5133190;27;20044;-59
2022/01/16 06:04:06;;;;;;;80.90;26.65;;;;;;;;;;5130583;27;20049;-61
2022/01/16 06:06:33;;;;;;;99.18;29.50;;;;;;;;;;5131609;27;20130;-60
2022/01/16 06:08:59;;;;;;;90.93;29.92;;;;;;;;;;5131595;27;20039;-60
2022/01/16 06:11:25;;;;;;;102.38;30.17;;;;;;;;;;5132441;27;20147;-61
2022/01/16 06:13:52;;;;;;;93.68;28.80;;;;;;;;;;5129328;27;20242;-61
2022/01/16 06:16:18;;;;;;;81.18;28.23;;;;;;;;;;5132090;27;20073;-60
2022/01/16 06:18:44;;;;;;;85.28;28.63;;;;;;;;;;5132210;27;20107;-60
2022/01/16 06:21:10;;;;;;;92.50;30.77;;;;;;;;;;5143034;27;20031;-61
2022/01/16 06:23:36;;;;;;;95.13;31.88;;;;;;;;;;5131363;27;20031;-59
2022/01/16 06:26:02;;;;;;;96.75;28.52;;;;;;;;;;5130621;27;20067;-59
2022/01/16 06:28:30;;;;;;;88.95;29.00;;;;;;;;;;5130111;27;20392;-60
2022/01/16 06:30:56;;;;;;;91.82;29.33;;;;;;;;;;5131992;27;20066;-60
2022/01/16 06:33:24;;;;;;;85.82;30.17;;;;;;;;;;5132961;27;20139;-61
2022/01/16 06:35:50;;;;;;;102.32;30.83;;;;;;;;;;5128136;27;20493;-61
2022/01/16 06:38:16;;;;;;;87.50;29.55;;;;;;;;;;5132063;27;20130;-60
2022/01/16 06:40:42;;;;;;;85.85;28.00;;;;;;;;;;5130362;27;20043;-59
2022/01/16 06:43:08;;;;;;;87.38;29.17;;;;;;;;;;5131875;27;20509;-60
2022/01/16 06:45:34;;;;;;;87.38;29.20;;;;;;;;;;5131211;27;20055;-60
2022/01/16 06:48:00;;;;;;;88.95;28.88;;;;;;;;;;5131147;27;20447;-59
2022/01/16 06:50:26;;;;;;;84.90;28.13;;;;;;;;;;5132225;27;20031;-61
2022/01/16 06:52:52;;;;;;;101.05;31.10;;;;;;;;;;5129560;27;20039;-60
2022/01/16 06:55:18;;;;;;;81.90;29.33;;;;;;;;;;5131350;27;20078;-60
2022/01/16 06:57:44;;;;;;;110.32;31.35;;;;;;;;;;5130773;27;20035;-61
2022/01/16 07:00:11;;;;;;;97.82;30.98;;;;;;;;;;5131482;27;20039;-60
2022/01/16 07:02:37;;;;;;;95.85;31.83;;;;;;;;;;5130405;27;20596;-61
2022/01/16 07:05:04;;;;;;;95.10;30.45;;;;;;;;;;5122627;27;20122;-60
2022/01/16 07:07:30;;;;;;;99.88;31.40;;;;;;;;;;5129014;27;20499;-59
2022/01/16 07:09:56;;;;;;;95.43;31.60;;;;;;;;;;5116233;27;20040;-60
2022/01/16 07:12:22;;;;;;;98.97;31.30;;;;;;;;;;5130716;27;20047;-59
2022/01/16 07:14:49;;;;;;;96.72;31.20;;;;;;;;;;5130895;27;20031;-61
2022/01/16 07:17:15;;;;;;;96.43;32.55;;;;;;;;;;5129349;27;20076;-60
2022/01/16 07:19:41;;;;;;;91.88;29.88;;;;;;;;;;5125995;27;20719;-61
2022/01/16 07:22:07;;;;;;;100.15;32.78;;;;;;;;;;5129732;27;20074;-61
2022/01/16 07:24:33;;;;;;;98.70;30.52;;;;;;;;;;5128551;27;20369;-61
2022/01/16 07:27:02;;;;;;;94.50;30.88;;;;;;;;;;5131984;27;20409;-61
2022/01/16 07:29:29;;;;;;;100.95;33.22;;;;;;;;;;5129848;27;20108;-60
2022/01/16 07:31:55;;;;;;;85.68;29.05;;;;;;;;;;5131718;27;20056;-60
2022/01/16 07:34:21;;;;;;;94.60;30.85;;;;;;;;;;5121386;27;20038;-60
2022/01/16 07:36:47;;;;;;;90.97;31.02;;;;;;;;;;5119722;27;20065;-60
2022/01/16 07:39:13;;;;;;;85.93;30.70;;;;;;;;;;5128498;27;20042;-61
2022/01/16 07:41:39;;;;;;;89.28;32.00;;;;;;;;;;5129414;27;20031;-61
2022/01/16 07:44:05;;;;;;;95.47;33.28;;;;;;;;;;5126793;27;20257;-60
2022/01/16 07:46:31;;;;;;;94.78;32.42;;;;;;;;;;5128078;27;20450;-59
2022/01/16 07:48:57;;;;;;;95.50;30.83;;;;;;;;;;5130053;27;20541;-60
2022/01/16 07:51:25;;;;;;;92.10;31.83;;;;;;;;;;5130398;27;20091;-60
2022/01/16 07:53:52;;;;;;;90.72;32.88;;;;;;;;;;5129184;27;20039;-60
2022/01/16 07:56:18;;;;;;;82.80;30.42;;;;;;;;;;5130894;27;20446;-60
2022/01/16 07:58:44;;;;;;;99.90;32.88;;;;;;;;;;5131734;27;20034;-59
2022/01/16 08:01:10;;;;;;;95.10;32.80;;;;;;;;;;5115978;27;20036;-61
2022/01/16 08:03:36;;;;;;;95.70;31.95;;;;;;;;;;5116520;27;20054;-61
2022/01/16 08:06:02;;;;;;;88.45;33.47;;;;;;;;;;5131198;27;20114;-61
2022/01/16 08:08:28;;;;;;;88.30;32.28;;;;;;;;;;5131208;27;20027;-60
2022/01/16 08:10:54;;;;;;;86.53;30.23;;;;;;;;;;5131793;27;21709;-60
2022/01/16 08:13:20;;;;;;;90.25;31.70;;;;;;;;;;5131565;27;20043;-60
2022/01/16 08:15:46;;;;;;;84.05;31.90;;;;;;;;;;5119767;27;20169;-60
2022/01/16 08:18:12;;;;;;;90.45;31.35;;;;;;;;;;5115669;27;20058;-60
2022/01/16 08:20:38;;;;;;;89.50;31.85;;;;;;;;;;5126798;27;20035;-61
2022/01/16 08:23:04;;;;;;;82.05;31.63;;;;;;;;;;5131651;27;20031;-61
2022/01/16 08:25:30;;;;;;;85.13;31.50;;;;;;;;;;5131806;27;20398;-61
2022/01/16 08:27:57;;;;;;;79.65;29.65;;;;;;;;;;5131567;27;20035;-60
2022/01/16 08:30:23;;;;;;;81.50;30.98;;;;;;;;;;5114598;27;20130;-59
2022/01/16 08:32:49;;;;;;;76.47;29.85;;;;;;;;;;5130546;27;20429;-60
2022/01/16 08:35:15;;;;;;;69.25;29.55;;;;;;;;;;5125621;27;20039;-60
2022/01/16 08:37:42;;;;;;;77.03;29.17;;;;;;;;;;5126195;27;20040;-61
2022/01/16 08:40:08;;;;;;;70.38;28.95;;;;;;;;;;5132033;27;20031;-59
2022/01/16 08:42:36;;;;;;;67.85;28.33;;;;;;;;;;5131804;27;20043;-60
2022/01/16 08:45:03;;;;;;;67.32;28.58;;;;;;;;;;5131285;27;20055;-60
2022/01/16 08:47:30;;;;;;;65.75;28.15;;;;;;;;;;5129710;27;20529;-60
2022/01/16 08:49:58;;;;;;;69.10;27.67;;;;;;;;;;5129860;27;20054;-62
2022/01/16 08:52:24;;;;;;;66.45;28.95;;;;;;;;;;5131923;27;20122;-60
2022/01/16 08:54:50;;;;;;;72.57;28.73;;;;;;;;;;5130600;27;20047;-61
2022/01/16 08:57:16;;;;;;;68.25;28.45;;;;;;;;;;5131786;27;20039;-61
2022/01/16 08:59:42;;;;;;;61.33;27.58;;;;;;;;;;5131808;27;20043;-60
2022/01/16 09:02:09;;;;;;;65.32;28.05;;;;;;;;;;5131705;27;20360;-62
2022/01/16 09:04:35;;;;;;;65.72;27.88;;;;;;;;;;5131912;27;20039;-60
2022/01/16 09:07:01;;;;;;;69.03;26.92;;;;;;;;;;5131600;27;20039;-60
2022/01/16 09:09:27;;;;;;;67.43;28.80;;;;;;;;;;5131762;27;20054;-60
2022/01/16 09:11:53;;;;;;;60.35;27.00;;;;;;;;;;5113076;28;20078;-60
2022/01/16 09:14:19;;;;;;;62.85;27.48;;;;;;;;;;5131511;27;20047;-60
2022/01/16 09:16:45;;;;;;;64.00;27.40;;;;;;;;;;5131286;27;20047;-61
2022/01/16 09:19:11;;;;;;;63.65;28.08;;;;;;;;;;5131725;28;20031;-60
2022/01/16 09:21:37;;;;;;;64.20;27.77;;;;;;;;;;5113554;28;20040;-60
2022/01/16 09:24:03;;;;;;;57.63;25.40;;;;;;;;;;5112190;28;20138;-61
2022/01/16 09:26:29;;;;;;;56.67;26.40;;;;;;;;;;5131561;28;20397;-61
2022/01/16 09:28:55;;;;;;;55.90;25.83;;;;;;;;;;5112700;28;20401;-61
2022/01/16 09:31:21;;;;;;;53.58;25.15;;;;;;;;;;5131626;27;20039;-61
2022/01/16 09:33:47;;;;;;;60.67;26.50;;;;;;;;;;5134826;27;20039;-59
2022/01/16 09:36:13;;;;;;;50.92;24.85;;;;;;;;;;5135656;27;20043;-60
2022/01/16 09:38:39;;;;;;;53.17;25.02;;;;;;;;;;5135950;27;20114;-60
2022/01/16 09:41:06;;;;;;;52.95;24.50;;;;;;;;;;5135293;27;20081;-61
2022/01/16 09:43:32;;;;;;;51.45;24.70;;;;;;;;;;5135440;27;20035;-61
2022/01/16 09:45:59;;;;;;;55.10;25.23;;;;;;;;;;5135158;27;20047;-60
2022/01/16 09:48:25;;;;;;;52.90;25.30;;;;;;;;;;5135676;27;20046;-60
2022/01/16 09:50:51;;;;;;;51.40;23.88;;;;;;;;;;5135471;27;20088;-60
2022/01/16 09:53:17;;;;;;;54.10;25.42;;;;;;;;;;5135231;27;20043;-60
2022/01/16 09:55:43;;;;;;;56.15;26.00;;;;;;;;;;5135467;27;20130;-59
2022/01/16 09:58:10;;;;;;;50.20;25.73;;;;;;;;;;5134848;27;20409;-61
2022/01/16 10:00:36;;;;;;;51.97;25.25;;;;;;;;;;5135572;27;20073;-59
2022/01/16 10:03:03;;;;;;;47.70;23.48;;;;;;;;;;5116735;27;20054;-59
2022/01/16 10:05:39;;;;;;;51.88;25.25;;;;;;;;;;5135108;27;20118;-59
2022/01/16 10:08:06;;;;;;;58.08;27.13;;;;;;;;;;5134924;27;20134;-61
2022/01/16 10:10:34;;;;;;;53.20;24.95;;;;;;;;;;5135073;27;20067;-60
2022/01/16 10:13:07;;;;;;;52.63;25.17;;;;;;;;;;5134718;27;20031;-60
2022/01/16 10:15:34;;;;;;;48.60;23.92;;;;;;;;;;5135148;27;20092;-59
2022/01/16 10:18:01;;;;;;;52.90;24.85;;;;;;;;;;5134840;27;20127;-60
2022/01/16 10:20:28;;;;;;;45.40;20.98;;;;;;;;;;5134724;27;20042;-60
2022/01/16 10:22:55;;;;;;;42.45;21.25;;;;;;;;;;5134794;27;20027;-60
2022/01/16 10:25:41;;;;;;;43.03;18.92;;;;;;;;;;5134315;27;20031;-61
2022/01/16 10:28:17;;;;;;;39.47;18.20;;;;;;;;;;5134605;27;20096;-61
2022/01/16 10:30:51;;;;;;;34.85;17.98;;;;;;;;;;5134873;27;20415;-58
2022/01/16 10:33:19;;;;;;;32.65;17.30;;;;;;;;;;5134397;27;20043;-59
2022/01/16 10:35:47;;;;;;;36.10;17.73;;;;;;;;;;5118502;27;20043;-58
2022/01/16 10:38:20;;;;;;;31.88;16.88;;;;;;;;;;5132800;27;20047;-60
2022/01/16 10:40:50;;;;;;;34.90;17.17;;;;;;;;;;5134721;27;20039;-61
2022/01/16 10:43:37;;;;;;;33.30;17.13;;;;;;;;;;5134217;27;20035;-60
2022/01/16 10:46:03;;;;;;;33.38;16.25;;;;;;;;;;5133802;27;20509;-61
2022/01/16 10:48:29;;;;;;;35.28;16.63;;;;;;;;;;5134240;27;20053;-60
2022/01/16 10:50:55;;;;;;;29.77;15.20;;;;;;;;;;5134262;27;20508;-61
2022/01/16 10:53:26;;;;;;;35.17;14.88;;;;;;;;;;5115809;27;20051;-60
2022/01/16 10:55:55;;;;;;;28.92;14.68;;;;;;;;;;5134205;27;20057;-60
2022/01/16 10:58:24;;;;;;;31.33;13.45;;;;;;;;;;5133713;27;20058;-61
2022/01/16 11:00:52;;;;;;;24.30;14.35;;;;;;;;;;5133988;27;20039;-61
2022/01/16 11:03:18;;;;;;;28.75;13.80;;;;;;;;;;5133780;27;20088;-60
2022/01/16 11:05:45;;;;;;;26.20;12.35;;;;;;;;;;5134045;27;20035;-61
2022/01/16 11:08:12;;;;;;;20.58;12.00;;;;;;;;;;5133909;27;20553;-61
2022/01/16 11:10:39;;;;;;;27.55;12.80;;;;;;;;;;5133719;27;20039;-60
2022/01/16 11:13:07;;;;;;;27.13;12.48;;;;;;;;;;5133743;27;20417;-61
2022/01/16 11:15:34;;;;;;;21.48;11.00;;;;;;;;;;5133488;27;20052;-62
2022/01/16 11:18:00;;;;;;;20.73;10.77;;;;;;;;;;5133799;27;20039;-60
2022/01/16 11:20:29;;;;;;;23.10;10.07;;;;;;;;;;5133364;27;20039;-61
2022/01/16 11:22:58;;;;;;;20.67;10.38;;;;;;;;;;5117647;27;20047;-60
2022/01/16 11:25:33;;;;;;;18.95;9.18;;;;;;;;;;5113739;27;20047;-61
2022/01/16 11:28:00;;;;;;;17.40;8.80;;;;;;;;;;5133476;27;20039;-60
2022/01/16 11:30:27;;;;;;;17.98;8.88;;;;;;;;;;5133159;27;20039;-60
2022/01/16 11:32:53;;;;;;;20.13;8.52;;;;;;;;;;5133500;27;20031;-60
2022/01/16 11:35:19;;;;;;;18.73;8.27;;;;;;;;;;5114971;27;20104;-61
2022/01/16 11:37:46;;;;;;;15.85;8.23;;;;;;;;;;5133121;27;20043;-61
2022/01/16 11:40:19;;;;;;;14.25;8.05;;;;;;;;;;5114932;27;20063;-61
2022/01/16 11:42:45;;;;;;;19.10;8.95;;;;;;;;;;5132816;27;20074;-59
2022/01/16 11:45:11;;;;;;;21.23;7.88;;;;;;;;;;5133014;27;20092;-59
2022/01/16 11:47:56;;;;;;;14.38;7.28;;;;;;;;;;5132786;27;20129;-60
2022/01/16 11:50:33;;;;;;;16.70;7.93;;;;;;;;;;5133069;27;20054;-60
2022/01/16 11:52:59;;;;;;;14.63;7.85;;;;;;;;;;5117019;27;20126;-59
2022/01/16 11:55:33;;;;;;;12.85;7.03;;;;;;;;;;5129881;27;20515;-60
2022/01/16 11:58:00;;;;;;;18.35;7.68;;;;;;;;;;5117253;27;20032;-60
2022/01/16 12:00:41;;;;;;;14.18;7.18;;;;;;;;;;5130532;27;20035;-60
2022/01/16 12:03:27;;;;;;;13.35;7.15;;;;;;;;;;5132849;27;20042;-60
2022/01/16 12:05:56;;;;;;;17.45;7.28;;;;;;;;;;5132492;27;20530;-61
2022/01/16 12:08:34;;;;;;;13.98;7.55;;;;;;;;;;5132723;27;20053;-60
2022/01/16 12:11:00;;;;;;;13.02;6.78;;;;;;;;;;5132818;27;20447;-60
2022/01/16 12:13:53;;;;;;;12.07;6.72;;;;;;;;;;5132584;27;20043;-60
2022/01/16 12:16:40;;;;;;;18.40;7.20;;;;;;;;;;5130538;27;20398;-59
2022/01/16 12:19:25;;;;;;;17.60;6.57;;;;;;;;;;5116684;27;20027;-61
2022/01/16 12:21:54;;;;;;;14.57;8.30;;;;;;;;;;5131444;27;20366;-62
2022/01/16 12:24:33;;;;;;;16.35;7.88;;;;;;;;;;5132706;27;20400;-61
2022/01/16 12:27:17;;;;;;;15.00;7.32;;;;;;;;;;5132408;27;20088;-60
2022/01/16 12:30:15;;;;;;;18.27;6.88;;;6.90;99.90;;;;;;5132113;27;20046;-62
2022/01/16 12:32:54;;;;;;;16.48;7.22;;;;;;;;;;5132190;27;20091;-60
2022/01/16 12:35:39;;;;;;;17.08;7.88;;;;;;;;;;5132278;27;20039;-60
2022/01/16 12:38:23;;;;;;;22.17;7.50;;;;;;;;;;5132183;27;20389;-60
2022/01/16 12:40:52;;;;;;;20.27;6.82;;;;;;;;;;5131709;27;20041;-60
2022/01/16 12:43:28;;;;;;;16.05;6.82;;;;;;;;;;5132388;27;20088;-60
2022/01/16 12:45:55;;;;;;;13.18;6.22;;;;;;;;;;5131823;27;20461;-61
2022/01/16 12:48:21;;;;;;;14.57;6.35;;;;;;;;;;5114833;27;20126;-60
2022/01/16 12:50:47;;;;;;;16.38;7.10;;;;;;;;;;5130874;27;20122;-61
2022/01/16 12:53:13;;;;;;;11.43;6.35;;;;;;;;;;5131790;27;20442;-60
2022/01/16 12:55:39;;;;;;;19.10;6.97;;;;;;;;;;5131882;27;20039;-60
2022/01/16 12:58:15;;;;;;;18.70;7.07;;;;;;;;;;5131951;27;20538;-61
2022/01/16 13:01:17;;;;;;;18.20;7.43;;;;;;;;;;5131592;27;20046;-61
2022/01/16 13:03:44;;;;;;;17.67;6.43;;;;;;;;;;5088229;28;20040;-61
2022/01/16 13:06:21;;;;;;;16.75;7.13;;;;;;;;;;5088350;28;20047;-60
2022/01/16 13:09:07;;;;;;;15.07;6.13;;;;;;;;;;5087736;28;20067;-60
2022/01/16 13:11:38;;;;;;;12.88;6.10;;;;;;;;;;5088437;28;20040;-61
2022/01/16 13:14:06;;;;;;;15.05;6.68;;;;;;;;;;5088236;28;20028;-62
2022/01/16 13:16:34;;;;;;;15.20;5.78;;;;;;;;;;5088427;28;20146;-61
2022/01/16 13:19:10;;;;;;;15.73;6.00;;;;;;;;;;5088345;28;20040;-60
2022/01/16 13:21:42;;;;;;;22.10;6.47;;;;;;;;;;5071654;28;20561;-59
2022/01/16 13:24:08;;;;;;;15.63;5.80;;;;;;;;;;5088175;28;20051;-60
2022/01/16 13:26:34;;;;;;;11.88;5.40;;;;;;;;;;5071381;28;20317;-59
2022/01/16 13:29:07;;;;;;;13.07;5.68;;;;;;;;;;5088078;28;20055;-60
2022/01/16 13:31:36;;;;;;;;;;;;;;;;;;5088748;28;20066;-61
2022/01/16 13:34:25;;;;;;;14.07;6.32;;;;;;;;;;5088060;28;20041;-61
2022/01/16 13:36:52;;;;;;;15.63;5.75;;;;;;;;;;5093812;28;20047;-61
2022/01/16 13:39:32;;;;;;;14.68;5.25;;;;;;;;;;5131304;28;20036;-60
2022/01/16 13:42:18;;;;;;;12.35;5.57;;;;;;;;;;5112943;28;20035;-60
2022/01/16 13:44:44;;;;;;;12.15;5.30;;;;;;;;;;5131309;27;20068;-60
2022/01/16 13:47:10;;;;;;;16.35;6.07;;;;;;;;;;5130620;28;20043;-61
2022/01/16 13:49:43;;;;;;;14.88;5.72;;;;;;;;;;5131211;28;20039;-60
2022/01/16 13:52:09;;;;;;;13.00;4.80;;;;;;;;;;5131311;28;20039;-60
2022/01/16 13:54:35;;;;;;;16.48;5.07;;;;;;;;;;5131230;28;20168;-60
2022/01/16 13:57:01;;;;;;;16.55;5.63;;;;;;;;;;5130939;28;20135;-61
2022/01/16 13:59:28;;;;;;;13.35;4.80;;;;;;;;;;5131430;28;20042;-62
2022/01/16 14:01:55;;;;;;;13.07;4.75;;;;;;;;;;5130937;28;20031;-61
2022/01/16 14:04:22;;;;;;;14.10;6.10;;;;;;;;;;5131530;28;20056;-62
2022/01/16 14:06:58;;;;;;;15.88;5.55;;;;;;;;;;5131272;27;20041;-60
2022/01/16 14:09:25;;;;;;;12.55;6.00;;;;;;;;;;5131293;27;20061;-62
2022/01/16 14:11:52;;;;;;;13.50;5.65;;;;;;;;;;5131152;28;20454;-60
2022/01/16 14:14:19;;;;;;;15.43;5.57;;;;;;;;;;5130901;28;20417;-61
2022/01/16 14:17:16;;;;;;;17.48;7.32;;;;;;;;;;5130793;28;20111;-61
2022/01/16 14:22:17;;;;;;;15.95;7.38;;;;;;;;;;5134884;27;20043;-61
2022/01/16 14:24:58;;;;;;;22.05;9.25;;;;;;;;;;5134894;27;20573;-60
2022/01/16 14:27:27;;;;;;;22.80;9.85;;;;;;;;;;5134586;27;20039;-60
2022/01/16 14:29:56;;;;;;;19.38;10.48;;;;;;;;;;5134646;27;20109;-61
2022/01/16 14:32:23;;;;;;;20.02;10.65;;;;;;;;;;5134348;27;20047;-61
2022/01/16 14:34:50;;;;;;;22.25;10.90;;;;;;;;;;5134527;27;20056;-60
2022/01/16 14:37:17;;;;;;;24.27;11.77;;;;;;;;;;5134229;27;20046;-61
2022/01/16 14:39:44;;;;;;;25.52;13.38;;;;;;;;;;5134413;27;20524;-61
2022/01/16 14:42:10;;;;;;;27.02;14.02;;;;;;;;;;5134360;27;20113;-61
2022/01/16 14:44:38;;;;;;;32.03;13.95;;;;;;;;;;5134456;27;20358;-59
2022/01/16 14:47:06;;;;;;;27.90;14.07;;;;;;;;;;5134064;27;20059;-60
2022/01/16 14:49:33;;;;;;;32.80;15.20;;;;;;;;;;5119443;27;20035;-61
2022/01/16 14:51:59;;;;;;;33.28;15.98;;;;;;;;;;5131175;27;20042;-60
2022/01/16 14:54:25;;;;;;;31.13;14.95;;;;;;;;;;5133970;27;20036;-61
2022/01/16 14:56:51;;;;;;;37.97;17.20;;;;;;;;;;5134178;27;20497;-60
2022/01/16 14:59:17;;;;;;;37.70;18.60;;;;;;;;;;5133717;27;20035;-61
2022/01/16 15:01:45;;;;;;;40.53;17.23;;;;;;;;;;5117931;27;20043;-59
2022/01/16 15:04:12;;;;;;;40.05;17.15;;;;;;;;;;5132013;27;20129;-60
2022/01/16 15:06:39;;;;;;;40.72;17.45;;;;;;;;;;5133793;27;20046;-60
2022/01/16 15:09:06;;;;;;;39.08;17.17;;;;;;;;;;5134231;27;20035;-62